.
WxDataArchive / Data Records for 2008-10-16
2008-10-15 October 2008 2008-10-17

Data Records for Thursday, 16 October 2008

Time	Temp	Chill	HIndex	Humid	Dewpt	 Wind 	HiWind	WindDir	Rain 	Barom 
-----	----	-----	------	-----	-----	------	------	-------	-----	----- 
00:00	54.2	54.2	54.2	94	52.5	1	4	292	0.00	29.970 
00:05	54.1	54.1	54.1	94	52.4	1	4	315	0.00	29.970 
00:10	53.9	53.9	53.9	94	52.2	1	4	292	0.00	29.972 
00:15	53.8	53.8	53.8	94	52.1	2	7	270	0.00	29.979 
00:20	53.9	53.9	53.9	94	52.2	1	4	315	0.00	29.983 
00:25	53.8	53.8	53.8	94	52.1	2	6	292	0.00	29.986 
00:30	53.8	53.8	53.8	93	51.8	2	6	292	0.00	29.986 
00:35	53.6	53.6	53.6	93	51.6	1	3	292	0.00	29.985 
00:40	53.6	53.6	53.6	93	51.6	1	4	292	0.00	29.985 
00:45	53.6	53.6	53.6	93	51.6	1	4	315	0.00	29.986 
00:50	53.5	53.5	53.5	93	51.5	1	5	315	0.00	29.986 
00:55	53.5	53.5	53.5	93	51.5	0	3	292	0.00	29.984 
01:00	53.5	53.5	53.5	92	51.2	1	3	292	0.00	29.986 
01:05	53.5	53.5	53.5	92	51.2	1	2	315	0.00	29.985 
01:10	53.5	53.5	53.5	92	51.2	1	3	315	0.00	29.986 
01:15	53.5	53.5	53.5	92	51.2	1	4	315	0.00	29.985 
01:20	53.5	53.5	53.5	92	51.2	0	4	270	0.00	29.989 
01:25	53.5	53.5	53.5	92	51.2	1	3	292	0.00	29.990 
01:30	53.5	53.5	53.5	92	51.2	1	3	292	0.00	29.994 
01:35	53.5	53.5	53.5	92	51.2	0	2	292	0.00	29.996 
01:40	53.3	53.3	53.3	92	51.0	0	3	292	0.00	29.998 
01:45	53.3	53.3	53.3	91	50.7	1	3	315	0.00	30.001 
01:50	53.3	53.3	53.3	91	50.7	0	3	292	0.00	30.000 
01:55	53.3	53.3	53.3	91	50.7	1	4	292	0.00	30.001 
02:00	53.3	53.3	53.3	90	50.4	1	5	315	0.00	30.003 
02:05	53.2	53.2	53.2	90	50.3	1	5	270	0.00	30.002 
02:10	53.2	53.2	53.2	90	50.3	0	4	315	0.00	30.006 
02:15	53.2	53.2	53.2	90	50.3	0	1	315	0.00	30.008 
02:20	53.1	53.1	53.1	90	50.2	0	1	315	0.00	30.010 
02:25	52.9	52.9	52.9	90	50.0	0	2	315	0.00	30.012 
02:30	52.8	52.8	52.8	89	49.6	0	1	315	0.00	30.012 
02:35	52.8	52.8	52.8	89	49.6	0	3	292	0.00	30.013 
02:40	52.6	52.6	52.6	90	49.7	0	1	292	0.00	30.013 
02:45	52.3	52.3	52.3	90	49.5	0	2	292	0.00	30.013 
02:50	52.3	52.3	52.3	90	49.5	0	1	292	0.00	30.014 
02:55	52.2	52.2	52.2	90	49.4	0	1	292	0.00	30.014 
03:00	52.2	52.2	52.2	90	49.4	0	1	292	0.00	30.014 
03:05	52.2	52.2	52.2	90	49.4	0	1	292	0.00	30.014 
03:10	52.2	52.2	52.2	90	49.4	0	1	292	0.00	30.015 
03:15	52.3	52.3	52.3	90	49.5	0	2	292	0.00	30.016 
03:20	52.2	52.2	52.2	90	49.4	0	0	---	0.00	30.018 
03:25	52.2	52.2	52.2	90	49.4	0	1	292	0.00	30.021 
03:30	52.0	52.0	52.0	90	49.2	0	1	292	0.00	30.025 
03:35	51.9	51.9	51.9	90	49.1	0	0	---	0.00	30.027 
03:40	51.6	51.6	51.6	90	48.8	0	0	---	0.00	30.029 
03:45	51.4	51.4	51.4	90	48.6	0	1	292	0.00	30.032 
03:50	51.3	51.3	51.3	90	48.5	0	1	292	0.00	30.034 
03:55	51.3	51.3	51.3	90	48.5	0	1	292	0.00	30.038 
04:00	51.3	51.3	51.3	90	48.5	0	0	---	0.00	30.039 
04:05	51.1	51.1	51.1	90	48.3	0	0	---	0.00	30.047 
04:10	51.3	51.3	51.3	90	48.5	0	1	292	0.00	30.050 
04:15	51.3	51.3	51.3	90	48.5	0	1	292	0.00	30.052 
04:20	51.4	51.4	51.4	90	48.6	0	1	292	0.00	30.052 
04:25	51.4	51.4	51.4	90	48.6	0	0	---	0.00	30.054 
04:30	51.4	51.4	51.4	90	48.6	0	1	292	0.00	30.055 
04:35	51.4	51.4	51.4	90	48.6	0	0	---	0.00	30.058 
04:40	51.4	51.4	51.4	90	48.6	0	1	292	0.00	30.062 
04:45	51.4	51.4	51.4	90	48.6	0	0	---	0.00	30.064 
04:50	51.4	51.4	51.4	90	48.6	0	0	---	0.00	30.066 
04:55	51.4	51.4	51.4	90	48.6	0	0	---	0.00	30.066 
05:00	51.4	51.4	51.4	90	48.6	0	1	292	0.00	30.067 
05:05	51.3	51.3	51.3	89	48.2	0	1	292	0.00	30.068 
05:10	51.3	51.3	51.3	88	47.9	0	1	292	0.00	30.068 
05:15	51.3	51.3	51.3	88	47.9	0	1	292	0.00	30.070 
05:20	51.1	51.1	51.1	87	47.4	0	1	292	0.00	30.073 
05:25	51.1	51.1	51.1	87	47.4	0	0	---	0.00	30.077 
05:30	51.0	51.0	51.0	87	47.3	0	1	292	0.00	30.077 
05:35	50.8	50.8	50.8	87	47.1	0	1	292	0.00	30.080 
05:40	50.8	50.8	50.8	88	47.4	0	0	---	0.00	30.082 
05:45	50.7	50.7	50.7	88	47.3	0	0	---	0.00	30.084 
05:50	50.5	50.5	50.5	88	47.1	0	0	---	0.00	30.085 
05:55	50.5	50.5	50.5	88	47.1	0	0	---	0.00	30.089 
06:00	50.5	50.5	50.5	88	47.1	0	1	292	0.00	30.092 
06:05	50.7	50.7	50.7	88	47.3	0	0	---	0.00	30.094 
06:10	50.7	50.7	50.7	88	47.3	0	1	292	0.00	30.097 
06:15	50.7	50.7	50.7	88	47.3	0	0	---	0.00	30.098 
06:20	50.7	50.7	50.7	88	47.3	0	0	---	0.00	30.098 
06:25	50.7	50.7	50.7	88	47.3	0	0	---	0.00	30.100 
06:30	50.7	50.7	50.7	88	47.3	0	1	292	0.00	30.101 
06:35	50.7	50.7	50.7	88	47.3	0	0	---	0.00	30.102 
06:40	50.7	50.7	50.7	88	47.3	0	0	---	0.00	30.105 
06:45	50.5	50.5	50.5	88	47.1	0	1	292	0.00	30.111 
06:50	50.5	50.5	50.5	88	47.1	0	0	---	0.00	30.112 
06:55	50.5	50.5	50.5	88	47.1	0	1	292	0.00	30.113 
07:00	50.5	50.5	50.5	88	47.1	0	0	---	0.00	30.115 
07:05	50.4	50.4	50.4	87	46.7	0	0	---	0.00	30.117 
07:10	50.2	50.2	50.2	87	46.5	0	1	292	0.00	30.119 
07:15	50.2	50.2	50.2	87	46.5	0	1	292	0.00	30.125 
07:20	50.1	50.1	50.1	87	46.4	0	1	292	0.00	30.125 
07:25	49.9	49.9	49.9	86	45.9	0	1	292	0.00	30.127 
07:30	49.9	49.9	49.9	86	45.9	0	1	292	0.00	30.130 
07:35	49.8	49.8	49.8	86	45.8	0	1	292	0.00	30.132 
07:40	49.8	49.8	49.8	86	45.8	0	0	---	0.00	30.134 
07:45	49.8	49.8	49.8	87	46.1	0	0	---	0.00	30.134 
07:50	49.8	49.8	49.8	87	46.1	0	2	292	0.00	30.138 
07:55	49.8	49.8	49.8	85	45.5	0	1	292	0.00	30.139 
08:00	49.8	49.8	49.8	85	45.5	0	1	292	0.00	30.143 
08:05	49.8	49.8	49.8	84	45.2	0	1	292	0.00	30.142 
08:10	49.9	49.9	49.9	84	45.3	0	1	292	0.00	30.141 
08:15	49.9	49.9	49.9	84	45.3	0	3	292	0.00	30.138 
08:20	50.1	50.1	50.1	81	44.5	0	2	292	0.00	30.140 
08:25	50.2	50.2	50.2	79	43.9	0	3	292	0.00	30.140 
08:30	50.4	50.4	50.4	77	43.5	0	1	292	0.00	30.142 
08:35	50.7	50.7	50.7	77	43.8	0	1	292	0.00	30.145 
08:40	51.0	51.0	51.0	74	43.0	0	2	292	0.00	30.147 
08:45	51.1	51.1	51.1	72	42.4	0	3	338	0.00	30.147 
08:50	51.4	51.4	51.4	70	41.9	0	2	0	0.00	30.147 
08:55	51.9	51.9	51.9	71	42.8	0	1	0	0.00	30.145 
09:00	52.2	52.2	52.2	69	42.3	0	2	0	0.00	30.146 
09:05	52.6	52.6	52.6	67	42.0	0	2	0	0.00	30.149 
09:10	52.8	52.8	52.8	65	41.4	0	3	0	0.00	30.149 
09:15	53.1	53.1	53.1	66	42.0	1	3	158	0.00	30.150 
09:20	53.6	53.6	53.6	64	41.7	1	4	112	0.00	30.151 
09:25	53.8	53.8	53.8	61	40.7	1	11	90	0.00	30.150 
09:30	53.8	53.8	53.8	62	41.1	1	4	22	0.00	30.152 
09:35	54.1	54.1	54.1	62	41.4	0	3	315	0.00	30.152 
09:40	54.1	54.1	54.1	60	40.5	1	4	292	0.00	30.154 
09:45	53.9	53.9	53.9	60	40.3	1	4	270	0.00	30.157 
09:50	54.1	54.1	54.1	62	41.4	0	2	315	0.00	30.159 
09:55	54.7	54.7	54.7	61	41.5	1	5	135	0.00	30.158 
10:00	55.0	55.0	55.0	59	40.9	1	3	45	0.00	30.161 
10:05	54.5	54.5	54.5	57	39.6	1	4	292	0.00	30.168 
10:10	54.5	54.5	54.5	60	40.9	0	2	292	0.00	30.168 
10:15	54.7	54.7	54.7	58	40.2	1	5	45	0.00	30.162 
10:20	54.5	54.5	54.5	58	40.0	1	4	135	0.00	30.161 
10:25	54.8	54.8	54.8	60	41.2	1	5	112	0.00	30.163 
10:30	55.3	55.3	55.3	56	39.9	1	4	292	0.00	30.163 
10:35	55.6	55.6	55.6	56	40.2	0	1	315	0.00	30.163 
10:40	55.4	55.4	55.4	55	39.5	1	6	68	0.00	30.163 
10:45	55.1	55.1	55.1	54	38.8	1	4	315	0.00	30.165 
10:50	54.8	54.8	54.8	58	40.3	0	2	315	0.00	30.166 
10:55	54.7	54.7	54.7	56	39.3	0	2	315	0.00	30.165 
11:00	54.5	54.5	54.5	56	39.1	1	3	315	0.00	30.166 
11:05	54.7	54.7	54.7	57	39.8	0	2	315	0.00	30.168 
11:10	55.6	55.6	55.6	59	41.5	0	3	68	0.00	30.168 
11:15	55.4	55.4	55.4	53	38.6	1	4	315	0.00	30.167 
11:20	54.7	54.7	54.7	54	38.4	0	2	0	0.00	30.169 
11:25	54.5	54.5	54.5	57	39.6	1	2	22	0.00	30.167 
11:30	55.6	55.6	55.6	58	41.1	0	1	22	0.00	30.163 
11:35	56.6	56.6	56.6	57	41.5	1	3	68	0.00	30.161 
11:40	57.0	57.0	57.0	53	40.0	1	4	135	0.00	30.161 
11:45	56.9	56.9	56.9	54	40.4	0	3	112	0.00	30.162 
11:50	56.6	56.6	56.6	54	40.1	1	3	22	0.00	30.162 
11:55	56.3	56.3	56.3	55	40.3	0	2	315	0.00	30.166 
12:00	55.9	55.9	55.9	55	40.0	0	2	315	0.00	30.165 
12:05	55.4	55.4	55.4	52	38.1	0	3	68	0.00	30.167 
12:10	55.7	55.7	55.7	56	40.2	0	2	270	0.00	30.160 
12:15	56.5	56.5	56.5	50	38.1	1	4	0	0.00	30.159 
12:20	56.5	56.5	56.5	52	39.1	1	4	292	0.00	30.157 
12:25	56.2	56.2	56.2	53	39.3	0	3	338	0.00	30.157 
12:30	56.3	56.3	56.3	52	38.9	0	2	248	0.00	30.155 
12:35	56.5	56.5	56.5	53	39.6	1	2	292	0.00	30.155 
12:40	56.9	56.9	56.9	50	38.5	1	3	270	0.00	30.155 
12:45	57.5	57.5	57.5	53	40.5	0	2	0	0.00	30.154 
12:50	58.0	58.0	58.0	50	39.5	0	2	0	0.00	30.151 
12:55	58.0	58.0	58.0	49	38.9	1	3	338	0.00	30.152 
13:00	56.9	56.9	56.9	50	38.5	1	3	315	0.00	30.154 
13:05	56.2	56.2	56.2	52	38.8	0	2	338	0.00	30.156 
13:10	56.7	56.7	56.7	52	39.3	1	4	270	0.00	30.152 
13:15	57.5	57.5	57.5	52	40.0	1	4	338	0.00	30.151 
13:20	57.5	57.5	57.5	52	40.0	1	4	292	0.00	30.152 
13:25	57.0	57.0	57.0	51	39.1	1	2	315	0.00	30.151 
13:30	56.5	56.5	56.5	55	40.5	0	1	315	0.00	30.148 
13:35	56.9	56.9	56.9	51	39.0	0	2	315	0.00	30.149 
13:40	57.2	57.2	57.2	49	38.2	0	2	315	0.00	30.142 
13:45	57.6	57.6	57.6	49	38.6	1	4	315	0.00	30.148 
13:50	57.0	57.0	57.0	50	38.5	1	3	292	0.00	30.150 
13:55	56.6	56.6	56.6	54	40.1	0	1	315	0.00	30.150 
14:00	56.9	56.9	56.9	50	38.5	1	2	315	0.00	30.149 
14:05	57.2	57.2	57.2	50	38.7	1	3	315	0.00	30.149 
14:10	57.6	57.6	57.6	47	37.5	0	2	292	0.00	30.143 
14:15	58.1	58.1	58.1	50	39.6	0	2	315	0.00	30.140 
14:20	58.4	58.4	58.4	49	39.3	2	4	270	0.00	30.140 
14:25	58.3	58.3	58.3	50	39.7	1	4	292	0.00	30.139 
14:30	58.4	58.4	58.4	48	38.8	0	3	315	0.00	30.138 
14:35	58.6	58.6	58.6	49	39.5	1	3	315	0.00	30.139 
14:40	58.9	58.9	58.9	48	39.2	1	4	112	0.00	30.138 
14:45	58.3	58.3	58.3	48	38.7	0	2	45	0.00	30.139 
14:50	58.3	58.3	58.3	52	40.8	0	1	45	0.00	30.138 
14:55	58.6	58.6	58.6	49	39.5	0	1	45	0.00	30.138 
15:00	58.9	58.9	58.9	50	40.3	1	9	22	0.00	30.138 
15:05	58.3	58.3	58.3	48	38.7	1	3	315	0.00	30.139 
15:10	57.5	57.5	57.5	50	39.0	0	3	315	0.00	30.141 
15:15	57.2	57.2	57.2	49	38.2	0	2	338	0.00	30.141 
15:20	57.5	57.5	57.5	50	39.0	1	2	338	0.00	30.142 
15:25	57.6	57.6	57.6	49	38.6	1	4	135	0.00	30.142 
15:30	57.3	57.3	57.3	49	38.3	0	3	112	0.00	30.141 
15:35	57.2	57.2	57.2	50	38.7	0	2	112	0.00	30.141 
15:40	57.3	57.3	57.3	49	38.3	0	5	112	0.00	30.140 
15:45	57.5	57.5	57.5	50	39.0	1	6	135	0.00	30.140 
15:50	57.6	57.6	57.6	51	39.6	1	3	45	0.00	30.141 
15:55	57.2	57.2	57.2	51	39.2	1	3	338	0.00	30.141 
16:00	56.6	56.6	56.6	51	38.7	0	1	22	0.00	30.142 
16:05	56.2	56.2	56.2	52	38.8	0	1	22	0.00	30.144 
16:10	55.9	55.9	55.9	53	39.0	0	1	22	0.00	30.146 
16:15	55.6	55.6	55.6	54	39.2	0	1	22	0.00	30.146 
16:20	55.6	55.6	55.6	55	39.7	0	0	---	0.00	30.146 
16:25	55.7	55.7	55.7	55	39.8	0	3	270	0.00	30.146 
16:30	55.9	55.9	55.9	51	38.0	0	2	90	0.00	30.149 
16:35	55.9	55.9	55.9	52	38.5	0	1	68	0.00	30.148 
16:40	55.6	55.6	55.6	54	39.2	0	1	68	0.00	30.147 
16:45	55.4	55.4	55.4	54	39.0	0	0	---	0.00	30.147 
16:50	55.3	55.3	55.3	55	39.4	0	0	---	0.00	30.147 
16:55	55.3	55.3	55.3	56	39.9	0	0	---	0.00	30.146 
17:00	55.4	55.4	55.4	56	40.0	0	0	---	0.00	30.148 
17:05	55.6	55.6	55.6	54	39.2	0	1	68	0.00	30.148 
17:10	55.7	55.7	55.7	54	39.3	0	1	68	0.00	30.152 
17:15	55.7	55.7	55.7	53	38.8	0	1	68	0.00	30.155 
17:20	55.7	55.7	55.7	53	38.8	0	1	68	0.00	30.156 
17:25	55.7	55.7	55.7	54	39.3	0	1	68	0.00	30.157 
17:30	55.4	55.4	55.4	54	39.0	0	1	68	0.00	30.158 
17:35	55.1	55.1	55.1	55	39.2	0	0	---	0.00	30.159 
17:40	54.7	54.7	54.7	56	39.3	0	0	---	0.00	30.159 
17:45	54.4	54.4	54.4	56	39.0	0	0	---	0.00	30.164 
17:50	54.1	54.1	54.1	57	39.2	0	0	---	0.00	30.164 
17:55	53.6	53.6	53.6	57	38.7	0	0	---	0.00	30.164 
18:00	53.3	53.3	53.3	58	38.9	0	0	---	0.00	30.163 
18:05	53.1	53.1	53.1	59	39.2	0	0	---	0.00	30.163 
18:10	52.9	52.9	52.9	60	39.4	0	0	---	0.00	30.163 
18:15	52.8	52.8	52.8	60	39.3	0	0	---	0.00	30.164 
18:20	52.5	52.5	52.5	61	39.4	0	0	---	0.00	30.164 
18:25	52.2	52.2	52.2	61	39.2	0	0	---	0.00	30.167 
18:30	51.9	51.9	51.9	62	39.3	0	0	---	0.00	30.171 
18:35	51.4	51.4	51.4	64	39.6	0	0	---	0.00	30.174 
18:40	51.1	51.1	51.1	65	39.7	0	0	---	0.00	30.175 
18:45	50.8	50.8	50.8	65	39.5	0	0	---	0.00	30.176 
18:50	50.5	50.5	50.5	66	39.6	0	0	---	0.00	30.176 
18:55	50.4	50.4	50.4	67	39.9	0	0	---	0.00	30.179 
19:00	50.4	50.4	50.4	67	39.9	0	0	---	0.00	30.181 
19:05	50.4	50.4	50.4	69	40.6	0	0	---	0.00	30.185 
19:10	50.4	50.4	50.4	68	40.2	0	0	---	0.00	30.188 
19:15	50.4	50.4	50.4	68	40.2	0	0	---	0.00	30.191 
19:20	50.5	50.5	50.5	69	40.7	0	0	---	0.00	30.190 
19:25	50.5	50.5	50.5	68	40.3	0	0	---	0.00	30.193 
19:30	50.7	50.7	50.7	67	40.1	0	0	---	0.00	30.191 
19:35	50.8	50.8	50.8	68	40.6	0	0	---	0.00	30.191 
19:40	51.0	51.0	51.0	67	40.4	0	0	---	0.00	30.190 
19:45	51.0	51.0	51.0	67	40.4	0	0	---	0.00	30.191 
19:50	51.0	51.0	51.0	67	40.4	0	0	---	0.00	30.191 
19:55	51.1	51.1	51.1	67	40.5	0	0	---	0.00	30.192 
20:00	51.1	51.1	51.1	67	40.5	0	0	---	0.00	30.193 
20:05	51.1	51.1	51.1	67	40.5	0	0	---	0.00	30.191 
20:10	51.1	51.1	51.1	67	40.5	0	0	---	0.00	30.190 
20:15	51.1	51.1	51.1	67	40.5	0	0	---	0.00	30.189 
20:20	51.1	51.1	51.1	66	40.1	0	0	---	0.00	30.188 
20:25	51.0	51.0	51.0	67	40.4	0	0	---	0.00	30.188 
20:30	51.0	51.0	51.0	67	40.4	0	0	---	0.00	30.187 
20:35	50.8	50.8	50.8	66	39.9	0	0	---	0.00	30.187 
20:40	51.0	51.0	51.0	66	40.0	0	0	---	0.00	30.186 
20:45	51.0	51.0	51.0	66	40.0	0	0	---	0.00	30.188 
20:50	51.0	51.0	51.0	65	39.7	0	1	68	0.00	30.190 
20:55	51.1	51.1	51.1	66	40.1	0	0	---	0.00	30.191 
21:00	51.1	51.1	51.1	65	39.7	0	0	---	0.00	30.191 
21:05	51.1	51.1	51.1	65	39.7	0	1	68	0.00	30.188 
21:10	51.0	51.0	51.0	66	40.0	0	0	---	0.00	30.189 
21:15	50.8	50.8	50.8	66	39.9	0	0	---	0.00	30.190 
21:20	50.8	50.8	50.8	66	39.9	0	0	---	0.00	30.190 
21:25	50.7	50.7	50.7	67	40.1	0	0	---	0.00	30.189 
21:30	50.7	50.7	50.7	67	40.1	0	0	---	0.00	30.190 
21:35	50.7	50.7	50.7	68	40.5	0	0	---	0.00	30.191 
21:40	50.5	50.5	50.5	68	40.3	0	0	---	0.00	30.193 
21:45	50.5	50.5	50.5	68	40.3	0	0	---	0.00	30.192 
21:50	50.4	50.4	50.4	69	40.6	0	0	---	0.00	30.193 
21:55	50.4	50.4	50.4	69	40.6	0	0	---	0.00	30.197 
22:00	50.4	50.4	50.4	69	40.6	0	0	---	0.00	30.197 
22:05	50.2	50.2	50.2	69	40.4	0	0	---	0.00	30.195 
22:10	50.2	50.2	50.2	69	40.4	0	0	---	0.00	30.196 
22:15	50.2	50.2	50.2	69	40.4	0	0	---	0.00	30.195 
22:20	50.4	50.4	50.4	68	40.2	0	0	---	0.00	30.194 
22:25	50.4	50.4	50.4	68	40.2	0	0	---	0.00	30.196 
22:30	50.4	50.4	50.4	69	40.6	0	0	---	0.00	30.194 
22:35	50.4	50.4	50.4	68	40.2	0	0	---	0.00	30.193 
22:40	50.4	50.4	50.4	68	40.2	0	0	---	0.00	30.193 
22:45	50.4	50.4	50.4	68	40.2	0	0	---	0.00	30.194 
22:50	50.4	50.4	50.4	68	40.2	0	0	---	0.00	30.194 
22:55	50.4	50.4	50.4	67	39.9	0	0	---	0.00	30.193 
23:00	50.5	50.5	50.5	67	40.0	0	0	---	0.00	30.195 
23:05	50.5	50.5	50.5	67	40.0	0	0	---	0.00	30.197 
23:10	50.5	50.5	50.5	67	40.0	0	0	---	0.00	30.195 
23:15	50.5	50.5	50.5	68	40.3	0	0	---	0.00	30.194 
23:20	50.5	50.5	50.5	69	40.7	0	0	---	0.00	30.197 
23:25	50.4	50.4	50.4	68	40.2	0	0	---	0.00	30.198 
23:30	50.4	50.4	50.4	68	40.2	0	0	---	0.00	30.195 
23:35	50.4	50.4	50.4	68	40.2	0	0	---	0.00	30.195 
23:40	50.4	50.4	50.4	69	40.6	0	0	---	0.00	30.193 
23:45	50.4	50.4	50.4	70	41.0	0	0	---	0.00	30.192 
23:50	50.4	50.4	50.4	69	40.6	0	0	---	0.00	30.193 
23:55	50.4	50.4	50.4	69	40.6	0	0	---	0.00	30.193 

CoCoRaHS
IN-AL-39
A2 Web Hosting
Creative Commons License
GoDaddy
Look for:

loaded 2017-12-11 06:36:54 • last modified 2010-11-18 10:43:29
Privacy PolicyDisclaimer
• wx.awcolley.com is powered by PmWiki v.2002016 •
• all content (unless otherwise noted) © 2017 A W Colley